Terminal Aerodrome Forecast
Issued by NWS Charleston, WV

Current Version | Previous Version | Graphics & Text | Print | Product List | Glossary On
Versions: 1 2 3 4 5 6 7 8 9 10 11 12 13 14 15 16 17 18 19 20 21 22 23 24 25 26 27 28
000
FTUS41 KRLX 280547 RRB
TAFBKW
TAF
KBKW 280547Z 2806/2906 15004KT P6SM BKN080
     FM280800 00000KT P6SM VCTS SCT025CB BKN060
     FM281000 VRB03KT 3SM TSRA BR SCT005 OVC020CB
     FM281600 26004KT 6SM -TSRA HZ OVC020CB=

USA.gov is the U.S. government's official web portal to all federal, state and local government web resources and services.